sensor_id;sensor_type;location;lat;lon;timestamp;pressure;altitude;pressure_sealevel;temperature;humidity
2711;BME280;20721;47.402;8.550;2023-03-23T00:03:45;95651;;;14.51;45.45
2711;BME280;20721;47.402;8.550;2023-03-23T00:04:45;95645;;;14.45;45.46
2711;BME280;20721;47.402;8.550;2023-03-23T00:05:50;95647;;;14.42;45.57
2711;BME280;20721;47.402;8.550;2023-03-23T00:07:45;95643;;;14.41;45.60
2711;BME280;20721;47.402;8.550;2023-03-23T00:08:45;95647;;;14.42;45.47
2711;BME280;20721;47.402;8.550;2023-03-23T00:10:47;95651;;;14.45;45.58
2711;BME280;20721;47.402;8.550;2023-03-23T00:12:49;95657;;;14.43;45.52
2711;BME280;20721;47.402;8.550;2023-03-23T00:15:45;95661;;;14.44;45.56
2711;BME280;20721;47.402;8.550;2023-03-23T00:16:45;95663;;;14.43;45.54
2711;BME280;20721;47.402;8.550;2023-03-23T00:17:45;95663;;;14.45;45.63
2711;BME280;20721;47.402;8.550;2023-03-23T00:19:51;95668;;;14.46;45.73
2711;BME280;20721;47.402;8.550;2023-03-23T00:20:45;95673;;;14.48;45.79
2711;BME280;20721;47.402;8.550;2023-03-23T00:21:45;95670;;;14.47;45.89
2711;BME280;20721;47.402;8.550;2023-03-23T00:22:45;95667;;;14.46;45.95
2711;BME280;20721;47.402;8.550;2023-03-23T00:23:45;95666;;;14.47;45.91
2711;BME280;20721;47.402;8.550;2023-03-23T00:24:45;95674;;;14.45;46.15
2711;BME280;20721;47.402;8.550;2023-03-23T00:25:45;95669;;;14.41;46.19
2711;BME280;20721;47.402;8.550;2023-03-23T00:26:49;95665;;;14.34;46.28
2711;BME280;20721;47.402;8.550;2023-03-23T00:27:45;95664;;;14.23;46.39
2711;BME280;20721;47.402;8.550;2023-03-23T00:28:46;95665;;;14.06;46.67
2711;BME280;20721;47.402;8.550;2023-03-23T00:29:45;95665;;;13.97;47.03
2711;BME280;20721;47.402;8.550;2023-03-23T00:30:45;95663;;;13.89;47.19
2711;BME280;20721;47.402;8.550;2023-03-23T00:31:48;95661;;;13.85;47.15
2711;BME280;20721;47.402;8.550;2023-03-23T00:32:45;95664;;;13.83;47.44
2711;BME280;20721;47.402;8.550;2023-03-23T00:33:45;95661;;;13.86;47.40
2711;BME280;20721;47.402;8.550;2023-03-23T00:34:47;95658;;;13.90;47.24
2711;BME280;20721;47.402;8.550;2023-03-23T00:35:45;95659;;;13.97;46.97
2711;BME280;20721;47.402;8.550;2023-03-23T00:36:46;95659;;;14.00;46.89
2711;BME280;20721;47.402;8.550;2023-03-23T00:37:45;95658;;;14.02;46.88
2711;BME280;20721;47.402;8.550;2023-03-23T00:38:46;95654;;;14.04;46.83
2711;BME280;20721;47.402;8.550;2023-03-23T00:40:47;95664;;;14.07;46.76
2711;BME280;20721;47.402;8.550;2023-03-23T00:41:45;95660;;;14.08;46.73
2711;BME280;20721;47.402;8.550;2023-03-23T00:42:45;95653;;;14.11;46.84
2711;BME280;20721;47.402;8.550;2023-03-23T00:43:45;95652;;;14.07;46.88
2711;BME280;20721;47.402;8.550;2023-03-23T00:44:45;95656;;;14.02;46.89
2711;BME280;20721;47.402;8.550;2023-03-23T00:45:49;95657;;;14.01;46.93
2711;BME280;20721;47.402;8.550;2023-03-23T00:46:46;95655;;;14.02;47.03
2711;BME280;20721;47.402;8.550;2023-03-23T00:47:46;95648;;;14.07;46.90
2711;BME280;20721;47.402;8.550;2023-03-23T00:48:45;95651;;;14.14;46.93
2711;BME280;20721;47.402;8.550;2023-03-23T00:49:45;95651;;;14.21;46.73
2711;BME280;20721;47.402;8.550;2023-03-23T00:50:45;95646;;;14.25;46.70
2711;BME280;20721;47.402;8.550;2023-03-23T00:51:45;95649;;;14.29;46.71
2711;BME280;20721;47.402;8.550;2023-03-23T00:52:45;95647;;;14.31;46.72
2711;BME280;20721;47.402;8.550;2023-03-23T00:53:45;95645;;;14.33;46.62
2711;BME280;20721;47.402;8.550;2023-03-23T00:54:45;95644;;;14.34;46.73
2711;BME280;20721;47.402;8.550;2023-03-23T00:55:45;95640;;;14.33;46.76
2711;BME280;20721;47.402;8.550;2023-03-23T00:56:45;95639;;;14.35;46.64
2711;BME280;20721;47.402;8.550;2023-03-23T00:57:45;95639;;;14.28;46.60
2711;BME280;20721;47.402;8.550;2023-03-23T00:58:45;95642;;;14.23;46.68
2711;BME280;20721;47.402;8.550;2023-03-23T00:59:45;95641;;;14.21;46.71
2711;BME280;20721;47.402;8.550;2023-03-23T01:02:45;95639;;;14.23;46.71
2711;BME280;20721;47.402;8.550;2023-03-23T01:03:45;95636;;;14.27;46.74
2711;BME280;20721;47.402;8.550;2023-03-23T01:04:45;95638;;;14.30;46.61
2711;BME280;20721;47.402;8.550;2023-03-23T01:11:45;95634;;;14.31;46.57
2711;BME280;20721;47.402;8.550;2023-03-23T01:12:45;95635;;;14.32;46.64
2711;BME280;20721;47.402;8.550;2023-03-23T01:13:45;95626;;;14.33;46.77
2711;BME280;20721;47.402;8.550;2023-03-23T01:15:45;95629;;;14.34;46.40
2711;BME280;20721;47.402;8.550;2023-03-23T01:16:45;95637;;;14.32;46.43
2711;BME280;20721;47.402;8.550;2023-03-23T01:17:45;95634;;;14.30;46.50
2711;BME280;20721;47.402;8.550;2023-03-23T01:18:45;95633;;;14.31;46.58
2711;BME280;20721;47.402;8.550;2023-03-23T01:20:45;95629;;;14.32;46.70
2711;BME280;20721;47.402;8.550;2023-03-23T01:21:45;95630;;;14.33;46.72
2711;BME280;20721;47.402;8.550;2023-03-23T01:23:45;95625;;;14.34;46.65
2711;BME280;20721;47.402;8.550;2023-03-23T01:24:45;95626;;;14.36;46.55
2711;BME280;20721;47.402;8.550;2023-03-23T01:25:45;95631;;;14.38;46.50
2711;BME280;20721;47.402;8.550;2023-03-23T01:27:45;95625;;;14.37;46.73
2711;BME280;20721;47.402;8.550;2023-03-23T01:28:45;95622;;;14.39;46.65
2711;BME280;20721;47.402;8.550;2023-03-23T01:30:45;95618;;;14.40;46.29
2711;BME280;20721;47.402;8.550;2023-03-23T01:31:45;95620;;;14.41;46.00
2711;BME280;20721;47.402;8.550;2023-03-23T01:32:45;95618;;;14.38;46.26
2711;BME280;20721;47.402;8.550;2023-03-23T01:33:45;95618;;;14.37;46.27
2711;BME280;20721;47.402;8.550;2023-03-23T01:34:45;95617;;;14.35;46.47
2711;BME280;20721;47.402;8.550;2023-03-23T01:35:45;95614;;;14.31;46.36
2711;BME280;20721;47.402;8.550;2023-03-23T01:36:45;95616;;;14.18;46.64
2711;BME280;20721;47.402;8.550;2023-03-23T01:37:45;95611;;;14.08;46.73
2711;BME280;20721;47.402;8.550;2023-03-23T01:38:48;95611;;;14.06;46.95
2711;BME280;20721;47.402;8.550;2023-03-23T01:39:45;95610;;;14.03;46.91
2711;BME280;20721;47.402;8.550;2023-03-23T01:40:45;95613;;;14.01;46.97
2711;BME280;20721;47.402;8.550;2023-03-23T01:41:45;95609;;;13.92;47.13
2711;BME280;20721;47.402;8.550;2023-03-23T01:42:45;95610;;;13.82;47.37
2711;BME280;20721;47.402;8.550;2023-03-23T01:45:45;95613;;;13.81;47.27
2711;BME280;20721;47.402;8.550;2023-03-23T01:46:45;95613;;;13.86;47.24
2711;BME280;20721;47.402;8.550;2023-03-23T01:47:46;95612;;;13.90;47.18
2711;BME280;20721;47.402;8.550;2023-03-23T01:48:45;95618;;;13.96;46.98
2711;BME280;20721;47.402;8.550;2023-03-23T01:49:46;95620;;;14.02;46.90
2711;BME280;20721;47.402;8.550;2023-03-23T01:51:47;95624;;;14.03;46.69
2711;BME280;20721;47.402;8.550;2023-03-23T01:52:45;95628;;;14.01;46.82
2711;BME280;20721;47.402;8.550;2023-03-23T01:53:48;95630;;;13.99;46.79
2711;BME280;20721;47.402;8.550;2023-03-23T01:54:45;95634;;;14.01;46.84
2711;BME280;20721;47.402;8.550;2023-03-23T01:55:49;95631;;;14.04;46.80
2711;BME280;20721;47.402;8.550;2023-03-23T01:56:47;95637;;;14.08;46.71
2711;BME280;20721;47.402;8.550;2023-03-23T01:57:45;95638;;;14.12;46.75
2711;BME280;20721;47.402;8.550;2023-03-23T01:58:45;95639;;;14.10;46.89
2711;BME280;20721;47.402;8.550;2023-03-23T01:59:47;95646;;;14.06;46.97
2711;BME280;20721;47.402;8.550;2023-03-23T02:00:45;95643;;;14.05;46.98
2711;BME280;20721;47.402;8.550;2023-03-23T02:01:46;95643;;;14.07;47.20
2711;BME280;20721;47.402;8.550;2023-03-23T02:02:46;95642;;;14.04;47.19
2711;BME280;20721;47.402;8.550;2023-03-23T02:03:45;95644;;;14.07;47.31
2711;BME280;20721;47.402;8.550;2023-03-23T02:04:45;95644;;;13.97;47.16
2711;BME280;20721;47.402;8.550;2023-03-23T02:05:45;95644;;;13.94;47.30
2711;BME280;20721;47.402;8.550;2023-03-23T02:06:45;95646;;;13.95;47.42
2711;BME280;20721;47.402;8.550;2023-03-23T02:07:45;95649;;;13.96;47.44
2711;BME280;20721;47.402;8.550;2023-03-23T02:08:45;95649;;;13.99;47.45
2711;BME280;20721;47.402;8.550;2023-03-23T02:09:45;95647;;;14.02;47.46
2711;BME280;20721;47.402;8.550;2023-03-23T02:10:51;95645;;;14.07;47.40
2711;BME280;20721;47.402;8.550;2023-03-23T02:11:45;95652;;;14.11;47.28
2711;BME280;20721;47.402;8.550;2023-03-23T02:12:45;95657;;;14.12;47.20
2711;BME280;20721;47.402;8.550;2023-03-23T02:16:49;95664;;;14.00;47.29
2711;BME280;20721;47.402;8.550;2023-03-23T02:17:47;95667;;;13.98;47.41
2711;BME280;20721;47.402;8.550;2023-03-23T02:18:52;95672;;;13.99;47.44
2711;BME280;20721;47.402;8.550;2023-03-23T02:20:53;95671;;;13.97;47.35
2711;BME280;20721;47.402;8.550;2023-03-23T02:21:50;95668;;;13.98;47.45
2711;BME280;20721;47.402;8.550;2023-03-23T02:27:56;95652;;;14.12;47.34
2711;BME280;20721;47.402;8.550;2023-03-23T02:29:52;95647;;;14.18;47.24
2711;BME280;20721;47.402;8.550;2023-03-23T02:30:52;95644;;;14.15;47.08
2711;BME280;20721;47.402;8.550;2023-03-23T02:31:48;95641;;;14.14;47.21
2711;BME280;20721;47.402;8.550;2023-03-23T02:33:49;95630;;;14.21;47.27
2711;BME280;20721;47.402;8.550;2023-03-23T02:35:47;95625;;;14.13;47.27
2711;BME280;20721;47.402;8.550;2023-03-23T02:37:46;95622;;;14.13;47.22
2711;BME280;20721;47.402;8.550;2023-03-23T02:38:54;95623;;;14.19;47.25
2711;BME280;20721;47.402;8.550;2023-03-23T02:39:47;95625;;;14.22;47.22
2711;BME280;20721;47.402;8.550;2023-03-23T02:40:46;95623;;;14.27;47.18
2711;BME280;20721;47.402;8.550;2023-03-23T02:41:47;95622;;;14.34;47.14
2711;BME280;20721;47.402;8.550;2023-03-23T02:42:46;95616;;;14.39;47.10
2711;BME280;20721;47.402;8.550;2023-03-23T02:43:45;95617;;;14.41;47.13
2711;BME280;20721;47.402;8.550;2023-03-23T02:44:45;95618;;;14.46;46.97
2711;BME280;20721;47.402;8.550;2023-03-23T02:45:45;95611;;;14.50;46.68
2711;BME280;20721;47.402;8.550;2023-03-23T02:46:45;95611;;;14.56;46.61
2711;BME280;20721;47.402;8.550;2023-03-23T02:47:45;95614;;;14.59;46.45
2711;BME280;20721;47.402;8.550;2023-03-23T02:48:45;95610;;;14.62;46.39
2711;BME280;20721;47.402;8.550;2023-03-23T02:49:46;95608;;;14.63;46.48
2711;BME280;20721;47.402;8.550;2023-03-23T02:50:46;95607;;;14.64;46.44
2711;BME280;20721;47.402;8.550;2023-03-23T02:52:45;95605;;;14.59;46.40
2711;BME280;20721;47.402;8.550;2023-03-23T02:53:45;95610;;;14.55;46.56
2711;BME280;20721;47.402;8.550;2023-03-23T02:54:46;95612;;;14.52;46.63
2711;BME280;20721;47.402;8.550;2023-03-23T02:55:45;95606;;;14.48;46.81
2711;BME280;20721;47.402;8.550;2023-03-23T02:56:45;95603;;;14.49;46.87
2711;BME280;20721;47.402;8.550;2023-03-23T02:57:46;95601;;;14.48;46.82
2711;BME280;20721;47.402;8.550;2023-03-23T02:58:45;95598;;;14.47;47.04
2711;BME280;20721;47.402;8.550;2023-03-23T02:59:45;95598;;;14.44;47.15
2711;BME280;20721;47.402;8.550;2023-03-23T03:00:49;95597;;;14.40;47.10
2711;BME280;20721;47.402;8.550;2023-03-23T03:01:48;95592;;;14.36;46.98
2711;BME280;20721;47.402;8.550;2023-03-23T03:02:48;95600;;;14.35;47.10
2711;BME280;20721;47.402;8.550;2023-03-23T03:03:45;95597;;;14.34;47.19
2711;BME280;20721;47.402;8.550;2023-03-23T03:04:52;95597;;;14.36;47.42
2711;BME280;20721;47.402;8.550;2023-03-23T03:05:51;95597;;;14.39;47.46
2711;BME280;20721;47.402;8.550;2023-03-23T03:07:50;95597;;;14.41;47.40
2711;BME280;20721;47.402;8.550;2023-03-23T03:08:48;95606;;;14.42;47.35
2711;BME280;20721;47.402;8.550;2023-03-23T03:11:46;95600;;;14.37;47.50
2711;BME280;20721;47.402;8.550;2023-03-23T03:12:51;95596;;;14.33;47.52
2711;BME280;20721;47.402;8.550;2023-03-23T03:14:49;95585;;;14.29;47.67
2711;BME280;20721;47.402;8.550;2023-03-23T03:16:47;95584;;;14.21;47.97
2711;BME280;20721;47.402;8.550;2023-03-23T03:17:47;95578;;;14.18;47.90
2711;BME280;20721;47.402;8.550;2023-03-23T03:19:46;95578;;;14.13;47.81
2711;BME280;20721;47.402;8.550;2023-03-23T03:21:47;95574;;;14.06;47.29
2711;BME280;20721;47.402;8.550;2023-03-23T03:22:45;95580;;;13.94;47.41
2711;BME280;20721;47.402;8.550;2023-03-23T03:23:45;95583;;;13.87;47.59
2711;BME280;20721;47.402;8.550;2023-03-23T03:24:45;95581;;;13.88;47.66
2711;BME280;20721;47.402;8.550;2023-03-23T03:25:47;95579;;;13.92;47.70
2711;BME280;20721;47.402;8.550;2023-03-23T03:26:48;95577;;;14.00;47.60
2711;BME280;20721;47.402;8.550;2023-03-23T03:27:45;95578;;;14.06;47.57
2711;BME280;20721;47.402;8.550;2023-03-23T03:28:47;95576;;;14.13;47.48
2711;BME280;20721;47.402;8.550;2023-03-23T03:29:48;95569;;;14.14;47.47
2711;BME280;20721;47.402;8.550;2023-03-23T03:30:49;95559;;;14.13;47.36
2711;BME280;20721;47.402;8.550;2023-03-23T03:31:45;95559;;;14.14;47.25
2711;BME280;20721;47.402;8.550;2023-03-23T03:32:47;95560;;;14.06;47.19
2711;BME280;20721;47.402;8.550;2023-03-23T03:33:45;95551;;;13.88;47.89
2711;BME280;20721;47.402;8.550;2023-03-23T03:34:47;95552;;;13.82;48.28
2711;BME280;20721;47.402;8.550;2023-03-23T03:35:45;95560;;;13.74;48.51
2711;BME280;20721;47.402;8.550;2023-03-23T03:36:45;95562;;;13.75;48.41
2711;BME280;20721;47.402;8.550;2023-03-23T03:37:46;95561;;;13.81;48.52
2711;BME280;20721;47.402;8.550;2023-03-23T03:38:46;95556;;;13.89;48.51
2711;BME280;20721;47.402;8.550;2023-03-23T03:39:45;95564;;;13.97;48.36
2711;BME280;20721;47.402;8.550;2023-03-23T03:40:45;95564;;;14.04;48.21
2711;BME280;20721;47.402;8.550;2023-03-23T03:41:45;95562;;;14.10;48.05
2711;BME280;20721;47.402;8.550;2023-03-23T03:42:46;95561;;;14.16;48.02
2711;BME280;20721;47.402;8.550;2023-03-23T03:43:45;95564;;;14.20;47.93
2711;BME280;20721;47.402;8.550;2023-03-23T03:44:46;95562;;;14.23;47.94
2711;BME280;20721;47.402;8.550;2023-03-23T03:45:45;95562;;;14.29;47.81
2711;BME280;20721;47.402;8.550;2023-03-23T03:46:45;95561;;;14.30;47.61
2711;BME280;20721;47.402;8.550;2023-03-23T03:47:46;95563;;;14.29;47.72
2711;BME280;20721;47.402;8.550;2023-03-23T03:48:46;95567;;;14.30;47.81
2711;BME280;20721;47.402;8.550;2023-03-23T03:49:45;95566;;;14.31;47.75
2711;BME280;20721;47.402;8.550;2023-03-23T03:50:46;95566;;;14.32;47.78
2711;BME280;20721;47.402;8.550;2023-03-23T03:51:45;95570;;;14.33;47.87
2711;BME280;20721;47.402;8.550;2023-03-23T03:53:46;95569;;;14.32;47.76
2711;BME280;20721;47.402;8.550;2023-03-23T03:55:49;95572;;;14.34;47.66
2711;BME280;20721;47.402;8.550;2023-03-23T03:56:46;95569;;;14.36;47.40
2711;BME280;20721;47.402;8.550;2023-03-23T03:57:45;95563;;;14.37;47.36
2711;BME280;20721;47.402;8.550;2023-03-23T04:00:48;95571;;;14.36;46.79
2711;BME280;20721;47.402;8.550;2023-03-23T04:01:45;95565;;;14.35;46.94
2711;BME280;20721;47.402;8.550;2023-03-23T04:02:50;95565;;;14.32;46.50
2711;BME280;20721;47.402;8.550;2023-03-23T04:03:45;95562;;;14.27;45.71
2711;BME280;20721;47.402;8.550;2023-03-23T04:05:55;95566;;;14.31;45.86
2711;BME280;20721;47.402;8.550;2023-03-23T04:06:45;95566;;;14.34;45.80
2711;BME280;20721;47.402;8.550;2023-03-23T04:07:49;95568;;;14.37;45.61
2711;BME280;20721;47.402;8.550;2023-03-23T04:08:46;95568;;;14.41;45.57
2711;BME280;20721;47.402;8.550;2023-03-23T04:09:47;95563;;;14.44;45.32
2711;BME280;20721;47.402;8.550;2023-03-23T04:10:45;95563;;;14.48;45.36
2711;BME280;20721;47.402;8.550;2023-03-23T04:11:45;95565;;;14.50;45.24
2711;BME280;20721;47.402;8.550;2023-03-23T04:12:45;95563;;;14.49;44.64
2711;BME280;20721;47.402;8.550;2023-03-23T04:13:45;95566;;;14.53;44.92
2711;BME280;20721;47.402;8.550;2023-03-23T04:14:45;95563;;;14.57;44.95
2711;BME280;20721;47.402;8.550;2023-03-23T04:15:55;95562;;;14.58;44.92
2711;BME280;20721;47.402;8.550;2023-03-23T04:16:56;95562;;;14.56;44.65
2711;BME280;20721;47.402;8.550;2023-03-23T04:17:45;95556;;;14.53;44.88
2711;BME280;20721;47.402;8.550;2023-03-23T04:18:56;95557;;;14.54;44.65
2711;BME280;20721;47.402;8.550;2023-03-23T04:19:47;95552;;;14.47;43.58
2711;BME280;20721;47.402;8.550;2023-03-23T04:20:47;95553;;;14.48;44.11
2711;BME280;20721;47.402;8.550;2023-03-23T04:21:49;95550;;;14.43;43.97
2711;BME280;20721;47.402;8.550;2023-03-23T04:22:49;95554;;;14.32;43.85
2711;BME280;20721;47.402;8.550;2023-03-23T04:23:46;95549;;;14.28;43.66
2711;BME280;20721;47.402;8.550;2023-03-23T04:24:59;95547;;;14.24;43.78
2711;BME280;20721;47.402;8.550;2023-03-23T04:25:47;95549;;;14.31;43.99
2711;BME280;20721;47.402;8.550;2023-03-23T04:26:46;95554;;;14.38;43.74
2711;BME280;20721;47.402;8.550;2023-03-23T04:27:52;95550;;;14.49;43.83
2711;BME280;20721;47.402;8.550;2023-03-23T04:28:45;95558;;;14.59;43.75
2711;BME280;20721;47.402;8.550;2023-03-23T04:29:48;95558;;;14.67;43.65
2711;BME280;20721;47.402;8.550;2023-03-23T04:30:46;95559;;;14.75;43.43
2711;BME280;20721;47.402;8.550;2023-03-23T04:31:45;95558;;;14.77;43.17
2711;BME280;20721;47.402;8.550;2023-03-23T04:32:45;95562;;;14.69;42.92
2711;BME280;20721;47.402;8.550;2023-03-23T04:33:55;95561;;;14.65;43.00
2711;BME280;20721;47.402;8.550;2023-03-23T04:34:46;95563;;;14.67;42.92
2711;BME280;20721;47.402;8.550;2023-03-23T04:35:47;95561;;;14.62;42.50
2711;BME280;20721;47.402;8.550;2023-03-23T04:36:56;95561;;;14.61;42.97
2711;BME280;20721;47.402;8.550;2023-03-23T04:38:45;95561;;;14.65;43.17
2711;BME280;20721;47.402;8.550;2023-03-23T04:39:45;95559;;;14.69;43.18
2711;BME280;20721;47.402;8.550;2023-03-23T04:40:46;95561;;;14.68;42.77
2711;BME280;20721;47.402;8.550;2023-03-23T04:41:46;95562;;;14.67;42.90
2711;BME280;20721;47.402;8.550;2023-03-23T04:42:46;95562;;;14.69;43.07
2711;BME280;20721;47.402;8.550;2023-03-23T04:43:45;95561;;;14.72;42.88
2711;BME280;20721;47.402;8.550;2023-03-23T04:45:45;95562;;;14.77;43.10
2711;BME280;20721;47.402;8.550;2023-03-23T04:46:49;95562;;;14.84;43.31
2711;BME280;20721;47.402;8.550;2023-03-23T04:47:52;95563;;;14.90;43.20
2711;BME280;20721;47.402;8.550;2023-03-23T04:48:45;95561;;;14.91;43.52
2711;BME280;20721;47.402;8.550;2023-03-23T04:49:45;95563;;;14.92;43.98
2711;BME280;20721;47.402;8.550;2023-03-23T04:51:45;95565;;;14.94;43.03
2711;BME280;20721;47.402;8.550;2023-03-23T04:52:51;95563;;;14.96;43.10
2711;BME280;20721;47.402;8.550;2023-03-23T04:53:45;95564;;;14.97;43.43
2711;BME280;20721;47.402;8.550;2023-03-23T04:54:45;95567;;;14.99;43.63
2711;BME280;20721;47.402;8.550;2023-03-23T04:55:46;95565;;;15.01;43.80
2711;BME280;20721;47.402;8.550;2023-03-23T04:57:46;95559;;;14.99;43.83
2711;BME280;20721;47.402;8.550;2023-03-23T04:58:45;95561;;;14.97;43.78
2711;BME280;20721;47.402;8.550;2023-03-23T04:59:45;95562;;;14.96;43.28
2711;BME280;20721;47.402;8.550;2023-03-23T05:01:45;95566;;;14.95;43.35
2711;BME280;20721;47.402;8.550;2023-03-23T05:04:45;95564;;;14.96;43.23
2711;BME280;20721;47.402;8.550;2023-03-23T05:05:51;95564;;;14.97;42.82
2711;BME280;20721;47.402;8.550;2023-03-23T05:06:45;95562;;;14.94;42.26
2711;BME280;20721;47.402;8.550;2023-03-23T05:07:46;95561;;;14.92;42.17
2711;BME280;20721;47.402;8.550;2023-03-23T05:08:46;95558;;;14.91;42.21
2711;BME280;20721;47.402;8.550;2023-03-23T05:09:47;95549;;;14.92;42.36
2711;BME280;20721;47.402;8.550;2023-03-23T05:10:53;95549;;;14.95;42.21
2711;BME280;20721;47.402;8.550;2023-03-23T05:11:45;95548;;;14.96;41.57
2711;BME280;20721;47.402;8.550;2023-03-23T05:12:45;95547;;;14.97;41.47
2711;BME280;20721;47.402;8.550;2023-03-23T05:13:45;95551;;;14.99;41.58
2711;BME280;20721;47.402;8.550;2023-03-23T05:15:46;95553;;;15.00;41.35
2711;BME280;20721;47.402;8.550;2023-03-23T05:16:48;95553;;;15.01;41.45
2711;BME280;20721;47.402;8.550;2023-03-23T05:17:45;95549;;;15.05;41.61
2711;BME280;20721;47.402;8.550;2023-03-23T05:18:46;95552;;;15.08;41.56
2711;BME280;20721;47.402;8.550;2023-03-23T05:19:47;95556;;;15.12;41.10
2711;BME280;20721;47.402;8.550;2023-03-23T05:20:46;95559;;;15.10;41.13
2711;BME280;20721;47.402;8.550;2023-03-23T05:21:45;95562;;;15.12;41.44
2711;BME280;20721;47.402;8.550;2023-03-23T05:22:48;95567;;;15.16;41.55
2711;BME280;20721;47.402;8.550;2023-03-23T05:23:47;95571;;;15.21;41.65
2711;BME280;20721;47.402;8.550;2023-03-23T05:24:46;95575;;;15.24;41.69
2711;BME280;20721;47.402;8.550;2023-03-23T05:26:48;95577;;;15.26;41.96
2711;BME280;20721;47.402;8.550;2023-03-23T05:27:48;95576;;;15.27;42.02
2711;BME280;20721;47.402;8.550;2023-03-23T05:28:46;95575;;;15.26;42.22
2711;BME280;20721;47.402;8.550;2023-03-23T05:30:46;95574;;;15.27;42.44
2711;BME280;20721;47.402;8.550;2023-03-23T05:31:46;95572;;;15.26;42.54
2711;BME280;20721;47.402;8.550;2023-03-23T05:32:50;95573;;;15.23;42.55
2711;BME280;20721;47.402;8.550;2023-03-23T05:33:45;95574;;;15.22;42.64
2711;BME280;20721;47.402;8.550;2023-03-23T05:34:46;95574;;;15.21;42.73
2711;BME280;20721;47.402;8.550;2023-03-23T05:35:47;95573;;;15.20;42.81
2711;BME280;20721;47.402;8.550;2023-03-23T05:36:45;95576;;;15.18;42.83
2711;BME280;20721;47.402;8.550;2023-03-23T05:37:45;95582;;;15.16;42.98
2711;BME280;20721;47.402;8.550;2023-03-23T05:38:47;95582;;;15.14;43.09
2711;BME280;20721;47.402;8.550;2023-03-23T05:39:45;95585;;;15.11;43.13
2711;BME280;20721;47.402;8.550;2023-03-23T05:40:45;95587;;;15.10;43.20
2711;BME280;20721;47.402;8.550;2023-03-23T05:41:53;95588;;;15.09;43.32
2711;BME280;20721;47.402;8.550;2023-03-23T05:42:46;95588;;;15.07;43.58
2711;BME280;20721;47.402;8.550;2023-03-23T05:43:45;95589;;;15.06;43.69
2711;BME280;20721;47.402;8.550;2023-03-23T05:45:46;95587;;;15.02;43.73
2711;BME280;20721;47.402;8.550;2023-03-23T05:46:46;95587;;;14.90;43.88
2711;BME280;20721;47.402;8.550;2023-03-23T05:47:46;95584;;;14.83;43.99
2711;BME280;20721;47.402;8.550;2023-03-23T05:49:45;95584;;;14.85;44.17
2711;BME280;20721;47.402;8.550;2023-03-23T05:50:47;95588;;;14.84;44.35
2711;BME280;20721;47.402;8.550;2023-03-23T05:51:46;95584;;;14.80;44.31
2711;BME280;20721;47.402;8.550;2023-03-23T05:52:45;95586;;;14.68;44.20
2711;BME280;20721;47.402;8.550;2023-03-23T05:53:47;95589;;;14.66;44.17
2711;BME280;20721;47.402;8.550;2023-03-23T05:54:46;95585;;;14.71;44.30
2711;BME280;20721;47.402;8.550;2023-03-23T05:55:46;95595;;;14.75;44.17
2711;BME280;20721;47.402;8.550;2023-03-23T05:56:46;95590;;;14.78;43.17
2711;BME280;20721;47.402;8.550;2023-03-23T05:57:45;95594;;;14.84;43.49
2711;BME280;20721;47.402;8.550;2023-03-23T05:58:45;95595;;;14.90;43.72
2711;BME280;20721;47.402;8.550;2023-03-23T05:59:45;95602;;;14.96;43.83
2711;BME280;20721;47.402;8.550;2023-03-23T06:00:46;95602;;;15.01;43.91
2711;BME280;20721;47.402;8.550;2023-03-23T06:01:51;95601;;;15.05;44.01
2711;BME280;20721;47.402;8.550;2023-03-23T06:02:46;95601;;;15.07;43.77
2711;BME280;20721;47.402;8.550;2023-03-23T06:03:46;95610;;;15.11;44.03
2711;BME280;20721;47.402;8.550;2023-03-23T06:04:45;95610;;;15.13;43.85
2711;BME280;20721;47.402;8.550;2023-03-23T06:05:45;95610;;;15.15;43.91
2711;BME280;20721;47.402;8.550;2023-03-23T06:06:45;95609;;;15.18;44.02
2711;BME280;20721;47.402;8.550;2023-03-23T06:07:46;95610;;;15.20;44.08
2711;BME280;20721;47.402;8.550;2023-03-23T06:08:46;95609;;;15.18;43.94
2711;BME280;20721;47.402;8.550;2023-03-23T06:10:45;95608;;;15.17;43.12
2711;BME280;20721;47.402;8.550;2023-03-23T06:11:47;95606;;;15.16;43.05
2711;BME280;20721;47.402;8.550;2023-03-23T06:12:45;95607;;;15.17;43.06
2711;BME280;20721;47.402;8.550;2023-03-23T06:14:46;95601;;;15.18;43.22
2711;BME280;20721;47.402;8.550;2023-03-23T06:15:46;95602;;;15.21;43.28
2711;BME280;20721;47.402;8.550;2023-03-23T06:16:46;95604;;;15.20;42.81
2711;BME280;20721;47.402;8.550;2023-03-23T06:17:46;95601;;;15.22;42.97
2711;BME280;20721;47.402;8.550;2023-03-23T06:18:46;95602;;;15.24;42.71
2711;BME280;20721;47.402;8.550;2023-03-23T06:20:48;95602;;;15.15;42.08
2711;BME280;20721;47.402;8.550;2023-03-23T06:21:45;95601;;;15.09;42.36
2711;BME280;20721;47.402;8.550;2023-03-23T06:22:46;95600;;;15.11;42.49
2711;BME280;20721;47.402;8.550;2023-03-23T06:24:46;95606;;;15.07;42.00
2711;BME280;20721;47.402;8.550;2023-03-23T06:26:46;95608;;;14.93;42.03
2711;BME280;20721;47.402;8.550;2023-03-23T06:27:46;95609;;;14.97;42.28
2711;BME280;20721;47.402;8.550;2023-03-23T06:28:46;95615;;;15.05;41.91
2711;BME280;20721;47.402;8.550;2023-03-23T06:29:46;95614;;;15.15;41.90
2711;BME280;20721;47.402;8.550;2023-03-23T06:30:45;95610;;;15.21;41.56
2711;BME280;20721;47.402;8.550;2023-03-23T06:31:47;95606;;;15.27;41.41
2711;BME280;20721;47.402;8.550;2023-03-23T06:32:47;95612;;;15.30;41.39
2711;BME280;20721;47.402;8.550;2023-03-23T06:33:47;95607;;;15.35;41.41
2711;BME280;20721;47.402;8.550;2023-03-23T06:34:47;95610;;;15.33;41.30
2711;BME280;20721;47.402;8.550;2023-03-23T06:35:46;95612;;;15.35;41.16
2711;BME280;20721;47.402;8.550;2023-03-23T06:36:47;95608;;;15.42;41.39
2711;BME280;20721;47.402;8.550;2023-03-23T06:37:46;95606;;;15.51;41.38
2711;BME280;20721;47.402;8.550;2023-03-23T06:38:46;95606;;;15.59;41.20
2711;BME280;20721;47.402;8.550;2023-03-23T06:39:46;95606;;;15.67;40.98
2711;BME280;20721;47.402;8.550;2023-03-23T06:40:46;95607;;;15.71;40.69
2711;BME280;20721;47.402;8.550;2023-03-23T06:41:46;95605;;;15.74;40.44
2711;BME280;20721;47.402;8.550;2023-03-23T06:42:45;95604;;;15.76;40.48
2711;BME280;20721;47.402;8.550;2023-03-23T06:43:46;95608;;;15.81;40.27
2711;BME280;20721;47.402;8.550;2023-03-23T06:44:46;95610;;;15.87;40.34